sensor_id;sensor_type;location;lat;lon;timestamp;temperature;humidity
28863;DHT22;15994;51.796;13.006;2023-03-01T00:01:00;-2.00;99.90
28863;DHT22;15994;51.796;13.006;2023-03-01T00:03:26;-2.00;99.90
28863;DHT22;15994;51.796;13.006;2023-03-01T00:05:53;-2.00;99.90
28863;DHT22;15994;51.796;13.006;2023-03-01T00:08:19;-2.20;99.90
28863;DHT22;15994;51.796;13.006;2023-03-01T00:10:46;-2.10;99.90
28863;DHT22;15994;51.796;13.006;2023-03-01T00:13:12;-2.10;99.90
28863;DHT22;15994;51.796;13.006;2023-03-01T00:15:40;-2.10;99.90
28863;DHT22;15994;51.796;13.006;2023-03-01T00:18:08;-2.00;99.90
28863;DHT22;15994;51.796;13.006;2023-03-01T00:20:34;-2.00;99.90
28863;DHT22;15994;51.796;13.006;2023-03-01T00:23:01;-1.90;99.90
28863;DHT22;15994;51.796;13.006;2023-03-01T00:25:27;-1.90;99.90
28863;DHT22;15994;51.796;13.006;2023-03-01T00:27:54;-1.80;99.90
28863;DHT22;15994;51.796;13.006;2023-03-01T00:30:20;-1.80;99.90
28863;DHT22;15994;51.796;13.006;2023-03-01T00:32:47;-1.80;99.90
28863;DHT22;15994;51.796;13.006;2023-03-01T00:35:13;-1.90;99.90
28863;DHT22;15994;51.796;13.006;2023-03-01T00:37:40;-1.90;99.90
28863;DHT22;15994;51.796;13.006;2023-03-01T00:40:08;-1.90;99.90
28863;DHT22;15994;51.796;13.006;2023-03-01T00:42:35;-1.90;99.90
28863;DHT22;15994;51.796;13.006;2023-03-01T00:45:02;-2.00;99.90
28863;DHT22;15994;51.796;13.006;2023-03-01T00:47:29;-2.00;99.90
28863;DHT22;15994;51.796;13.006;2023-03-01T00:49:55;-2.00;99.90
28863;DHT22;15994;51.796;13.006;2023-03-01T00:52:22;-2.10;99.90
28863;DHT22;15994;51.796;13.006;2023-03-01T00:54:51;-2.20;99.90
28863;DHT22;15994;51.796;13.006;2023-03-01T00:57:17;-2.10;99.90
28863;DHT22;15994;51.796;13.006;2023-03-01T00:59:44;-2.20;99.90
28863;DHT22;15994;51.796;13.006;2023-03-01T01:02:11;-2.20;99.90
28863;DHT22;15994;51.796;13.006;2023-03-01T01:04:37;-2.20;99.90
28863;DHT22;15994;51.796;13.006;2023-03-01T01:07:04;-2.20;99.90
28863;DHT22;15994;51.796;13.006;2023-03-01T01:09:30;-2.20;99.90
28863;DHT22;15994;51.796;13.006;2023-03-01T01:11:57;-2.10;99.90
28863;DHT22;15994;51.796;13.006;2023-03-01T01:14:23;-2.10;99.90
28863;DHT22;15994;51.796;13.006;2023-03-01T01:16:50;-2.10;99.90
28863;DHT22;15994;51.796;13.006;2023-03-01T01:19:16;-2.10;99.90
28863;DHT22;15994;51.796;13.006;2023-03-01T01:21:43;-2.10;99.90
28863;DHT22;15994;51.796;13.006;2023-03-01T01:24:11;-2.10;99.90
28863;DHT22;15994;51.796;13.006;2023-03-01T01:26:37;-2.10;99.90
28863;DHT22;15994;51.796;13.006;2023-03-01T01:29:04;-2.20;99.90
28863;DHT22;15994;51.796;13.006;2023-03-01T01:31:32;-2.10;99.90
28863;DHT22;15994;51.796;13.006;2023-03-01T01:34:01;-2.20;99.90
28863;DHT22;15994;51.796;13.006;2023-03-01T01:36:28;-2.20;99.90
28863;DHT22;15994;51.796;13.006;2023-03-01T01:38:55;-2.20;99.90
28863;DHT22;15994;51.796;13.006;2023-03-01T01:41:21;-2.20;99.90
28863;DHT22;15994;51.796;13.006;2023-03-01T01:46:44;-2.40;99.90
28863;DHT22;15994;51.796;13.006;2023-03-01T01:55:05;-2.70;99.90
28863;DHT22;15994;51.796;13.006;2023-03-01T01:57:39;-2.70;99.90
28863;DHT22;15994;51.796;13.006;2023-03-01T02:00:19;-2.90;99.90
28863;DHT22;15994;51.796;13.006;2023-03-01T02:02:49;-2.90;99.90
28863;DHT22;15994;51.796;13.006;2023-03-01T02:07:52;-2.90;99.90
28863;DHT22;15994;51.796;13.006;2023-03-01T02:10:21;-3.00;99.90
28863;DHT22;15994;51.796;13.006;2023-03-01T02:12:49;-3.10;99.90
28863;DHT22;15994;51.796;13.006;2023-03-01T02:15:16;-3.10;99.90
28863;DHT22;15994;51.796;13.006;2023-03-01T02:17:42;-3.10;99.90
28863;DHT22;15994;51.796;13.006;2023-03-01T02:22:37;-3.10;99.90
28863;DHT22;15994;51.796;13.006;2023-03-01T02:30:45;-3.30;99.90
28863;DHT22;15994;51.796;13.006;2023-03-01T02:33:27;-3.40;99.90
28863;DHT22;15994;51.796;13.006;2023-03-01T02:35:54;-3.30;99.90
28863;DHT22;15994;51.796;13.006;2023-03-01T02:38:23;-3.30;99.90
28863;DHT22;15994;51.796;13.006;2023-03-01T02:40:51;-3.20;99.90
28863;DHT22;15994;51.796;13.006;2023-03-01T02:43:20;-3.20;99.90
28863;DHT22;15994;51.796;13.006;2023-03-01T02:45:53;-3.20;99.90
28863;DHT22;15994;51.796;13.006;2023-03-01T02:48:23;-3.20;99.90
28863;DHT22;15994;51.796;13.006;2023-03-01T02:53:32;-3.10;99.90
28863;DHT22;15994;51.796;13.006;2023-03-01T02:56:00;-3.10;99.90
28863;DHT22;15994;51.796;13.006;2023-03-01T02:58:27;-3.20;99.90
28863;DHT22;15994;51.796;13.006;2023-03-01T03:00:53;-3.10;99.90
28863;DHT22;15994;51.796;13.006;2023-03-01T03:03:21;-3.20;99.90
28863;DHT22;15994;51.796;13.006;2023-03-01T03:05:48;-3.10;99.90
28863;DHT22;15994;51.796;13.006;2023-03-01T03:08:14;-3.10;99.90
28863;DHT22;15994;51.796;13.006;2023-03-01T03:10:49;-3.10;99.90
28863;DHT22;15994;51.796;13.006;2023-03-01T03:13:15;-3.10;99.90
28863;DHT22;15994;51.796;13.006;2023-03-01T03:15:43;-3.10;99.90
28863;DHT22;15994;51.796;13.006;2023-03-01T03:18:12;-3.10;99.90
28863;DHT22;15994;51.796;13.006;2023-03-01T03:20:40;-3.10;99.90
28863;DHT22;15994;51.796;13.006;2023-03-01T03:23:07;-3.10;99.90
28863;DHT22;15994;51.796;13.006;2023-03-01T03:25:34;-3.10;99.90
28863;DHT22;15994;51.796;13.006;2023-03-01T03:28:03;-3.20;99.90
28863;DHT22;15994;51.796;13.006;2023-03-01T03:30:37;-3.10;99.90
28863;DHT22;15994;51.796;13.006;2023-03-01T03:33:05;-3.20;99.90
28863;DHT22;15994;51.796;13.006;2023-03-01T03:35:37;-3.10;99.90
28863;DHT22;15994;51.796;13.006;2023-03-01T03:38:06;-3.10;99.90
28863;DHT22;15994;51.796;13.006;2023-03-01T03:40:36;-3.10;99.90
28863;DHT22;15994;51.796;13.006;2023-03-01T03:43:05;-3.10;99.90
28863;DHT22;15994;51.796;13.006;2023-03-01T03:45:32;-3.10;99.90
28863;DHT22;15994;51.796;13.006;2023-03-01T03:48:00;-3.10;99.90
28863;DHT22;15994;51.796;13.006;2023-03-01T03:50:27;-3.00;99.90
28863;DHT22;15994;51.796;13.006;2023-03-01T03:52:54;-3.00;99.90
28863;DHT22;15994;51.796;13.006;2023-03-01T03:55:21;-3.00;99.90
28863;DHT22;15994;51.796;13.006;2023-03-01T03:57:48;-3.10;99.90
28863;DHT22;15994;51.796;13.006;2023-03-01T04:00:18;-3.00;99.90
28863;DHT22;15994;51.796;13.006;2023-03-01T04:02:46;-3.00;99.90
28863;DHT22;15994;51.796;13.006;2023-03-01T04:05:14;-3.00;99.90
28863;DHT22;15994;51.796;13.006;2023-03-01T04:07:42;-3.00;99.90
28863;DHT22;15994;51.796;13.006;2023-03-01T04:10:18;-3.00;99.90
28863;DHT22;15994;51.796;13.006;2023-03-01T04:12:44;-3.00;99.90
28863;DHT22;15994;51.796;13.006;2023-03-01T04:15:11;-3.00;99.90
28863;DHT22;15994;51.796;13.006;2023-03-01T04:17:42;-3.00;99.90
28863;DHT22;15994;51.796;13.006;2023-03-01T04:20:11;-3.00;99.90
28863;DHT22;15994;51.796;13.006;2023-03-01T04:22:38;-3.00;99.90
28863;DHT22;15994;51.796;13.006;2023-03-01T04:25:06;-3.00;99.90
28863;DHT22;15994;51.796;13.006;2023-03-01T04:27:34;-3.00;99.90
28863;DHT22;15994;51.796;13.006;2023-03-01T04:30:01;-3.00;99.90
28863;DHT22;15994;51.796;13.006;2023-03-01T04:32:28;-3.00;99.90
28863;DHT22;15994;51.796;13.006;2023-03-01T04:34:54;-3.00;99.90
28863;DHT22;15994;51.796;13.006;2023-03-01T04:37:21;-3.00;99.90
28863;DHT22;15994;51.796;13.006;2023-03-01T04:39:47;-3.00;99.90
28863;DHT22;15994;51.796;13.006;2023-03-01T04:42:15;-3.00;99.90
28863;DHT22;15994;51.796;13.006;2023-03-01T04:44:43;-3.00;99.90
28863;DHT22;15994;51.796;13.006;2023-03-01T04:47:09;-3.00;99.90
28863;DHT22;15994;51.796;13.006;2023-03-01T04:49:36;-3.10;99.90
28863;DHT22;15994;51.796;13.006;2023-03-01T04:52:03;-3.00;99.90
28863;DHT22;15994;51.796;13.006;2023-03-01T04:54:32;-3.00;99.90
28863;DHT22;15994;51.796;13.006;2023-03-01T04:57:00;-3.00;99.90
28863;DHT22;15994;51.796;13.006;2023-03-01T04:59:27;-3.00;99.90
28863;DHT22;15994;51.796;13.006;2023-03-01T05:01:54;-3.00;99.90
28863;DHT22;15994;51.796;13.006;2023-03-01T05:04:23;-3.00;99.90
28863;DHT22;15994;51.796;13.006;2023-03-01T05:06:49;-3.10;99.90
28863;DHT22;15994;51.796;13.006;2023-03-01T05:09:16;-3.10;99.90
28863;DHT22;15994;51.796;13.006;2023-03-01T05:11:43;-3.20;99.90
28863;DHT22;15994;51.796;13.006;2023-03-01T05:14:11;-3.30;99.90
28863;DHT22;15994;51.796;13.006;2023-03-01T05:16:37;-3.30;99.90
28863;DHT22;15994;51.796;13.006;2023-03-01T05:19:04;-3.40;99.90
28863;DHT22;15994;51.796;13.006;2023-03-01T05:21:37;-3.30;99.90
28863;DHT22;15994;51.796;13.006;2023-03-01T05:24:24;-3.30;99.90
28863;DHT22;15994;51.796;13.006;2023-03-01T05:26:52;-3.30;99.90
28863;DHT22;15994;51.796;13.006;2023-03-01T05:29:22;-3.30;99.90
28863;DHT22;15994;51.796;13.006;2023-03-01T05:34:30;-3.30;99.90
28863;DHT22;15994;51.796;13.006;2023-03-01T05:36:57;-3.30;99.90
28863;DHT22;15994;51.796;13.006;2023-03-01T05:39:26;-3.40;99.90
28863;DHT22;15994;51.796;13.006;2023-03-01T05:41:54;-3.40;99.90
28863;DHT22;15994;51.796;13.006;2023-03-01T05:44:22;-3.50;99.90
28863;DHT22;15994;51.796;13.006;2023-03-01T05:46:48;-3.60;99.90
28863;DHT22;15994;51.796;13.006;2023-03-01T05:49:15;-3.60;99.90
28863;DHT22;15994;51.796;13.006;2023-03-01T05:51:43;-3.70;99.90
28863;DHT22;15994;51.796;13.006;2023-03-01T05:54:13;-3.70;99.90
28863;DHT22;15994;51.796;13.006;2023-03-01T05:56:39;-3.60;99.90
28863;DHT22;15994;51.796;13.006;2023-03-01T05:59:06;-3.60;99.90
28863;DHT22;15994;51.796;13.006;2023-03-01T06:01:34;-3.60;99.90
28863;DHT22;15994;51.796;13.006;2023-03-01T06:04:01;-3.50;99.90
28863;DHT22;15994;51.796;13.006;2023-03-01T06:06:28;-3.50;99.90
28863;DHT22;15994;51.796;13.006;2023-03-01T06:08:55;-3.50;99.90
28863;DHT22;15994;51.796;13.006;2023-03-01T06:11:21;-3.50;99.90
28863;DHT22;15994;51.796;13.006;2023-03-01T06:13:48;-3.50;99.90
28863;DHT22;15994;51.796;13.006;2023-03-01T06:16:14;-3.50;99.90
28863;DHT22;15994;51.796;13.006;2023-03-01T06:18:42;-3.50;99.90
28863;DHT22;15994;51.796;13.006;2023-03-01T06:21:09;-3.50;99.90
28863;DHT22;15994;51.796;13.006;2023-03-01T06:23:35;-3.50;99.90
28863;DHT22;15994;51.796;13.006;2023-03-01T06:26:06;-3.40;99.90
28863;DHT22;15994;51.796;13.006;2023-03-01T06:28:33;-3.40;99.90
28863;DHT22;15994;51.796;13.006;2023-03-01T06:31:00;-3.40;99.90
28863;DHT22;15994;51.796;13.006;2023-03-01T06:33:27;-3.40;99.90
28863;DHT22;15994;51.796;13.006;2023-03-01T06:35:56;-3.30;99.90
28863;DHT22;15994;51.796;13.006;2023-03-01T06:38:24;-3.30;99.90
28863;DHT22;15994;51.796;13.006;2023-03-01T06:40:54;-3.30;99.90
28863;DHT22;15994;51.796;13.006;2023-03-01T06:43:22;-3.20;99.90
28863;DHT22;15994;51.796;13.006;2023-03-01T06:45:48;-3.20;99.90
28863;DHT22;15994;51.796;13.006;2023-03-01T06:48:15;-3.10;99.90
28863;DHT22;15994;51.796;13.006;2023-03-01T06:50:42;-3.00;99.90
28863;DHT22;15994;51.796;13.006;2023-03-01T06:53:09;-2.90;99.90
28863;DHT22;15994;51.796;13.006;2023-03-01T06:55:35;-2.80;99.90
28863;DHT22;15994;51.796;13.006;2023-03-01T06:58:03;-2.70;99.90
28863;DHT22;15994;51.796;13.006;2023-03-01T07:00:30;-2.60;99.90
28863;DHT22;15994;51.796;13.006;2023-03-01T07:03:00;-2.60;99.90
28863;DHT22;15994;51.796;13.006;2023-03-01T07:05:28;-2.50;99.90
28863;DHT22;15994;51.796;13.006;2023-03-01T07:07:55;-2.40;99.90
28863;DHT22;15994;51.796;13.006;2023-03-01T07:10:22;-2.30;99.90
28863;DHT22;15994;51.796;13.006;2023-03-01T07:12:48;-2.20;99.90
28863;DHT22;15994;51.796;13.006;2023-03-01T07:15:15;-2.10;99.90
28863;DHT22;15994;51.796;13.006;2023-03-01T07:17:41;-2.00;99.90
28863;DHT22;15994;51.796;13.006;2023-03-01T07:20:10;-2.00;99.90
28863;DHT22;15994;51.796;13.006;2023-03-01T07:22:39;-1.90;99.90
28863;DHT22;15994;51.796;13.006;2023-03-01T07:25:06;-1.80;99.90
28863;DHT22;15994;51.796;13.006;2023-03-01T07:27:33;-1.80;99.90
28863;DHT22;15994;51.796;13.006;2023-03-01T07:30:00;-1.70;99.90
28863;DHT22;15994;51.796;13.006;2023-03-01T07:32:26;-1.60;99.90
28863;DHT22;15994;51.796;13.006;2023-03-01T07:34:53;-1.50;99.90
28863;DHT22;15994;51.796;13.006;2023-03-01T07:37:19;-1.30;99.90
28863;DHT22;15994;51.796;13.006;2023-03-01T07:39:46;-1.30;99.90
28863;DHT22;15994;51.796;13.006;2023-03-01T07:42:12;-1.20;99.90
28863;DHT22;15994;51.796;13.006;2023-03-01T07:44:39;-1.10;99.90
28863;DHT22;15994;51.796;13.006;2023-03-01T07:47:05;-1.00;99.90
28863;DHT22;15994;51.796;13.006;2023-03-01T07:49:32;-0.90;99.90
28863;DHT22;15994;51.796;13.006;2023-03-01T07:51:58;-0.80;99.90
28863;DHT22;15994;51.796;13.006;2023-03-01T07:54:25;-0.70;99.90
28863;DHT22;15994;51.796;13.006;2023-03-01T07:56:52;-0.60;99.90
28863;DHT22;15994;51.796;13.006;2023-03-01T07:59:20;-0.50;99.90
28863;DHT22;15994;51.796;13.006;2023-03-01T08:01:46;-0.50;99.90
28863;DHT22;15994;51.796;13.006;2023-03-01T08:04:12;-0.50;99.90
28863;DHT22;15994;51.796;13.006;2023-03-01T08:06:39;-0.50;99.90
28863;DHT22;15994;51.796;13.006;2023-03-01T08:09:06;-0.40;99.90
28863;DHT22;15994;51.796;13.006;2023-03-01T08:11:33;-0.30;99.90
28863;DHT22;15994;51.796;13.006;2023-03-01T08:13:59;-0.20;99.90
28863;DHT22;15994;51.796;13.006;2023-03-01T08:16:26;-0.10;99.90
28863;DHT22;15994;51.796;13.006;2023-03-01T08:18:52;0.00;99.90
28863;DHT22;15994;51.796;13.006;2023-03-01T08:21:21;0.00;99.90
28863;DHT22;15994;51.796;13.006;2023-03-01T08:23:47;0.10;99.90
28863;DHT22;15994;51.796;13.006;2023-03-01T08:26:17;0.10;99.90
28863;DHT22;15994;51.796;13.006;2023-03-01T08:28:44;0.20;99.90
28863;DHT22;15994;51.796;13.006;2023-03-01T08:31:23;0.40;99.90
28863;DHT22;15994;51.796;13.006;2023-03-01T08:33:54;0.50;99.90
28863;DHT22;15994;51.796;13.006;2023-03-01T08:36:23;0.50;99.90
28863;DHT22;15994;51.796;13.006;2023-03-01T08:38:50;0.70;99.90
28863;DHT22;15994;51.796;13.006;2023-03-01T08:41:17;0.70;99.90
28863;DHT22;15994;51.796;13.006;2023-03-01T08:43:44;0.80;99.90
28863;DHT22;15994;51.796;13.006;2023-03-01T08:46:11;1.00;99.90
28863;DHT22;15994;51.796;13.006;2023-03-01T08:48:38;1.10;99.90
28863;DHT22;15994;51.796;13.006;2023-03-01T08:51:10;1.10;99.90
28863;DHT22;15994;51.796;13.006;2023-03-01T08:53:37;1.10;99.90
28863;DHT22;15994;51.796;13.006;2023-03-01T08:56:04;1.30;99.90
28863;DHT22;15994;51.796;13.006;2023-03-01T08:58:31;1.30;99.90
28863;DHT22;15994;51.796;13.006;2023-03-01T09:00:57;1.50;99.90
28863;DHT22;15994;51.796;13.006;2023-03-01T09:03:25;1.60;99.90
28863;DHT22;15994;51.796;13.006;2023-03-01T09:05:52;1.70;99.90
28863;DHT22;15994;51.796;13.006;2023-03-01T09:08:19;1.90;99.90
28863;DHT22;15994;51.796;13.006;2023-03-01T09:10:46;1.90;99.90
28863;DHT22;15994;51.796;13.006;2023-03-01T09:13:12;2.00;99.90
28863;DHT22;15994;51.796;13.006;2023-03-01T09:15:39;2.10;99.90
28863;DHT22;15994;51.796;13.006;2023-03-01T09:18:06;2.10;99.90
28863;DHT22;15994;51.796;13.006;2023-03-01T09:20:32;2.20;99.90
28863;DHT22;15994;51.796;13.006;2023-03-01T09:22:59;2.20;99.90
28863;DHT22;15994;51.796;13.006;2023-03-01T09:25:25;2.30;99.90
28863;DHT22;15994;51.796;13.006;2023-03-01T09:27:53;2.50;99.90
28863;DHT22;15994;51.796;13.006;2023-03-01T09:30:20;2.60;99.90
28863;DHT22;15994;51.796;13.006;2023-03-01T09:32:47;2.60;99.90
28863;DHT22;15994;51.796;13.006;2023-03-01T09:35:14;2.70;99.90
28863;DHT22;15994;51.796;13.006;2023-03-01T09:37:40;2.80;99.90
28863;DHT22;15994;51.796;13.006;2023-03-01T09:40:17;2.80;99.90
28863;DHT22;15994;51.796;13.006;2023-03-01T09:43:08;2.90;99.90
28863;DHT22;15994;51.796;13.006;2023-03-01T09:45:44;3.00;99.90
28863;DHT22;15994;51.796;13.006;2023-03-01T09:48:19;3.10;99.90
28863;DHT22;15994;51.796;13.006;2023-03-01T09:50:47;3.20;99.90
28863;DHT22;15994;51.796;13.006;2023-03-01T09:53:17;3.30;99.90
28863;DHT22;15994;51.796;13.006;2023-03-01T09:55:56;3.30;99.90
28863;DHT22;15994;51.796;13.006;2023-03-01T09:58:39;3.30;99.90
28863;DHT22;15994;51.796;13.006;2023-03-01T10:04:01;3.70;99.90
28863;DHT22;15994;51.796;13.006;2023-03-01T10:06:29;3.60;99.90
28863;DHT22;15994;51.796;13.006;2023-03-01T10:11:31;3.70;99.90
28863;DHT22;15994;51.796;13.006;2023-03-01T10:14:06;3.70;99.90
28863;DHT22;15994;51.796;13.006;2023-03-01T10:16:48;3.80;99.90
28863;DHT22;15994;51.796;13.006;2023-03-01T10:19:31;3.90;99.90
28863;DHT22;15994;51.796;13.006;2023-03-01T10:22:05;4.10;99.90
28863;DHT22;15994;51.796;13.006;2023-03-01T10:24:36;4.20;99.90
28863;DHT22;15994;51.796;13.006;2023-03-01T10:27:17;4.40;99.90
28863;DHT22;15994;51.796;13.006;2023-03-01T10:32:18;4.30;99.90
28863;DHT22;15994;51.796;13.006;2023-03-01T10:34:47;4.40;99.90
28863;DHT22;15994;51.796;13.006;2023-03-01T10:37:17;4.60;99.90
28863;DHT22;15994;51.796;13.006;2023-03-01T10:40:04;4.60;99.90
28863;DHT22;15994;51.796;13.006;2023-03-01T10:42:36;4.70;99.90
28863;DHT22;15994;51.796;13.006;2023-03-01T10:45:31;4.70;99.90
28863;DHT22;15994;51.796;13.006;2023-03-01T10:50:45;4.60;99.60
28863;DHT22;15994;51.796;13.006;2023-03-01T10:53:29;4.70;99.70
28863;DHT22;15994;51.796;13.006;2023-03-01T10:56:08;4.80;99.90
28863;DHT22;15994;51.796;13.006;2023-03-01T10:58:37;4.80;99.50
28863;DHT22;15994;51.796;13.006;2023-03-01T11:03:43;4.80;99.90
28863;DHT22;15994;51.796;13.006;2023-03-01T11:08:46;4.90;98.50
28863;DHT22;15994;51.796;13.006;2023-03-01T11:11:29;4.80;98.80
28863;DHT22;15994;51.796;13.006;2023-03-01T11:14:06;4.90;99.00
28863;DHT22;15994;51.796;13.006;2023-03-01T11:16:39;5.00;98.70
28863;DHT22;15994;51.796;13.006;2023-03-01T11:21:50;5.30;97.90
28863;DHT22;15994;51.796;13.006;2023-03-01T11:24:19;5.30;97.40
28863;DHT22;15994;51.796;13.006;2023-03-01T11:26:52;5.40;94.80
28863;DHT22;15994;51.796;13.006;2023-03-01T11:29:40;5.50;94.50
28863;DHT22;15994;51.796;13.006;2023-03-01T11:32:11;5.60;94.30
28863;DHT22;15994;51.796;13.006;2023-03-01T11:34:43;5.60;93.60
28863;DHT22;15994;51.796;13.006;2023-03-01T11:37:23;5.60;93.20
28863;DHT22;15994;51.796;13.006;2023-03-01T11:45:10;5.70;93.50
28863;DHT22;15994;51.796;13.006;2023-03-01T11:50:30;5.90;91.70
28863;DHT22;15994;51.796;13.006;2023-03-01T11:53:16;5.90;90.40
28863;DHT22;15994;51.796;13.006;2023-03-01T11:56:01;5.90;90.20
28863;DHT22;15994;51.796;13.006;2023-03-01T11:58:52;5.90;91.20
28863;DHT22;15994;51.796;13.006;2023-03-01T12:01:46;6.00;90.30
28863;DHT22;15994;51.796;13.006;2023-03-01T12:10:08;5.90;86.70
28863;DHT22;15994;51.796;13.006;2023-03-01T12:19:21;6.20;90.00
28863;DHT22;15994;51.796;13.006;2023-03-01T12:22:28;6.10;90.20
28863;DHT22;15994;51.796;13.006;2023-03-01T12:25:16;6.10;89.40
28863;DHT22;15994;51.796;13.006;2023-03-01T12:33:52;6.30;90.70
28863;DHT22;15994;51.796;13.006;2023-03-01T12:36:27;6.40;90.00
28863;DHT22;15994;51.796;13.006;2023-03-01T12:42:04;6.50;90.80
28863;DHT22;15994;51.796;13.006;2023-03-01T12:45:12;6.50;92.10
28863;DHT22;15994;51.796;13.006;2023-03-01T12:47:57;6.60;91.70
28863;DHT22;15994;51.796;13.006;2023-03-01T12:50:40;6.60;91.60
28863;DHT22;15994;51.796;13.006;2023-03-01T12:56:16;6.70;90.70
28863;DHT22;15994;51.796;13.006;2023-03-01T13:01:52;6.80;88.70
28863;DHT22;15994;51.796;13.006;2023-03-01T13:04:35;6.80;91.40
28863;DHT22;15994;51.796;13.006;2023-03-01T13:10:06;6.80;89.50
28863;DHT22;15994;51.796;13.006;2023-03-01T13:18:00;6.90;91.10
28863;DHT22;15994;51.796;13.006;2023-03-01T13:20:45;6.80;91.40
28863;DHT22;15994;51.796;13.006;2023-03-01T13:26:09;6.90;91.20
28863;DHT22;15994;51.796;13.006;2023-03-01T13:28:51;6.90;90.80
28863;DHT22;15994;51.796;13.006;2023-03-01T13:33:48;6.80;91.80
28863;DHT22;15994;51.796;13.006;2023-03-01T13:47:16;6.90;90.90
28863;DHT22;15994;51.796;13.006;2023-03-01T13:49:46;6.90;91.00
28863;DHT22;15994;51.796;13.006;2023-03-01T13:55:24;7.00;90.10
28863;DHT22;15994;51.796;13.006;2023-03-01T13:57:57;6.90;90.90
28863;DHT22;15994;51.796;13.006;2023-03-01T14:00:32;6.90;91.60
28863;DHT22;15994;51.796;13.006;2023-03-01T14:03:13;7.00;91.80
28863;DHT22;15994;51.796;13.006;2023-03-01T14:06:04;6.90;91.10
28863;DHT22;15994;51.796;13.006;2023-03-01T14:08:30;7.00;92.20
28863;DHT22;15994;51.796;13.006;2023-03-01T14:13:54;6.90;92.20
28863;DHT22;15994;51.796;13.006;2023-03-01T14:19:18;7.00;92.40
28863;DHT22;15994;51.796;13.006;2023-03-01T14:21:47;7.00;91.90
28863;DHT22;15994;51.796;13.006;2023-03-01T14:24:19;7.00;92.30
28863;DHT22;15994;51.796;13.006;2023-03-01T14:26:47;7.00;92.00
28863;DHT22;15994;51.796;13.006;2023-03-01T14:29:25;7.00;92.40
28863;DHT22;15994;51.796;13.006;2023-03-01T14:31:52;6.90;93.00
28863;DHT22;15994;51.796;13.006;2023-03-01T14:34:21;7.00;92.50
28863;DHT22;15994;51.796;13.006;2023-03-01T14:36:48;7.00;93.20
28863;DHT22;15994;51.796;13.006;2023-03-01T14:39:19;7.00;92.60
28863;DHT22;15994;51.796;13.006;2023-03-01T14:41:47;7.00;92.60
28863;DHT22;15994;51.796;13.006;2023-03-01T14:44:19;7.00;93.00
28863;DHT22;15994;51.796;13.006;2023-03-01T14:46:46;7.00;93.40
28863;DHT22;15994;51.796;13.006;2023-03-01T14:49:22;7.00;92.90
28863;DHT22;15994;51.796;13.006;2023-03-01T14:51:58;7.00;93.20
28863;DHT22;15994;51.796;13.006;2023-03-01T14:54:39;6.90;93.30
28863;DHT22;15994;51.796;13.006;2023-03-01T14:57:18;7.00;93.30
28863;DHT22;15994;51.796;13.006;2023-03-01T14:59:47;7.00;93.10
28863;DHT22;15994;51.796;13.006;2023-03-01T15:02:18;7.00;93.30
28863;DHT22;15994;51.796;13.006;2023-03-01T15:04:47;6.90;92.70
28863;DHT22;15994;51.796;13.006;2023-03-01T15:07:14;6.90;93.20
28863;DHT22;15994;51.796;13.006;2023-03-01T15:09:41;6.90;93.10
28863;DHT22;15994;51.796;13.006;2023-03-01T15:14:54;6.80;93.40
28863;DHT22;15994;51.796;13.006;2023-03-01T15:17:35;6.80;93.40
28863;DHT22;15994;51.796;13.006;2023-03-01T15:20:06;6.80;92.50
28863;DHT22;15994;51.796;13.006;2023-03-01T15:22:33;6.80;93.00
28863;DHT22;15994;51.796;13.006;2023-03-01T15:25:01;6.70;92.90
28863;DHT22;15994;51.796;13.006;2023-03-01T15:27:27;6.70;93.40
28863;DHT22;15994;51.796;13.006;2023-03-01T15:29:57;6.60;92.70
28863;DHT22;15994;51.796;13.006;2023-03-01T15:32:31;6.70;92.90
28863;DHT22;15994;51.796;13.006;2023-03-01T15:34:59;6.60;92.90
28863;DHT22;15994;51.796;13.006;2023-03-01T15:40:02;6.50;93.50
28863;DHT22;15994;51.796;13.006;2023-03-01T15:45:31;6.40;93.80
28863;DHT22;15994;51.796;13.006;2023-03-01T15:48:04;6.40;93.30
28863;DHT22;15994;51.796;13.006;2023-03-01T15:50:36;6.30;93.60
28863;DHT22;15994;51.796;13.006;2023-03-01T15:53:09;6.20;93.60
28863;DHT22;15994;51.796;13.006;2023-03-01T15:55:37;6.20;93.10
28863;DHT22;15994;51.796;13.006;2023-03-01T15:58:08;6.10;93.30
28863;DHT22;15994;51.796;13.006;2023-03-01T16:00:35;6.10;93.00
28863;DHT22;15994;51.796;13.006;2023-03-01T16:03:03;6.00;93.10
28863;DHT22;15994;51.796;13.006;2023-03-01T16:05:31;6.00;93.00
28863;DHT22;15994;51.796;13.006;2023-03-01T16:07:58;5.90;93.20
28863;DHT22;15994;51.796;13.006;2023-03-01T16:10:25;5.90;93.20
28863;DHT22;15994;51.796;13.006;2023-03-01T16:12:53;5.80;93.10
28863;DHT22;15994;51.796;13.006;2023-03-01T16:15:22;5.80;93.00
28863;DHT22;15994;51.796;13.006;2023-03-01T16:17:49;5.70;92.90
28863;DHT22;15994;51.796;13.006;2023-03-01T16:20:16;5.70;93.00
28863;DHT22;15994;51.796;13.006;2023-03-01T16:22:43;5.60;93.20
28863;DHT22;15994;51.796;13.006;2023-03-01T16:25:12;5.50;93.40
28863;DHT22;15994;51.796;13.006;2023-03-01T16:27:38;5.40;93.50
28863;DHT22;15994;51.796;13.006;2023-03-01T16:30:08;5.40;93.70
28863;DHT22;15994;51.796;13.006;2023-03-01T16:32:43;5.30;93.90
28863;DHT22;15994;51.796;13.006;2023-03-01T16:35:12;5.20;93.90
28863;DHT22;15994;51.796;13.006;2023-03-01T16:37:39;5.20;94.40
28863;DHT22;15994;51.796;13.006;2023-03-01T16:40:25;5.00;94.50
28863;DHT22;15994;51.796;13.006;2023-03-01T16:42:53;4.90;95.20
28863;DHT22;15994;51.796;13.006;2023-03-01T16:45:20;4.80;95.40
28863;DHT22;15994;51.796;13.006;2023-03-01T16:47:47;4.70;95.50
28863;DHT22;15994;51.796;13.006;2023-03-01T16:50:13;4.60;95.80
28863;DHT22;15994;51.796;13.006;2023-03-01T16:52:40;4.40;96.10
28863;DHT22;15994;51.796;13.006;2023-03-01T16:55:07;4.20;96.30
28863;DHT22;15994;51.796;13.006;2023-03-01T16:57:35;4.10;96.20
28863;DHT22;15994;51.796;13.006;2023-03-01T17:00:06;4.00;96.70
28863;DHT22;15994;51.796;13.006;2023-03-01T17:02:34;3.90;96.60
28863;DHT22;15994;51.796;13.006;2023-03-01T17:05:02;3.80;97.00
28863;DHT22;15994;51.796;13.006;2023-03-01T17:07:30;3.70;97.10
28863;DHT22;15994;51.796;13.006;2023-03-01T17:09:59;3.60;97.20
28863;DHT22;15994;51.796;13.006;2023-03-01T17:12:25;3.50;97.30
28863;DHT22;15994;51.796;13.006;2023-03-01T17:14:52;3.50;97.00
28863;DHT22;15994;51.796;13.006;2023-03-01T17:17:19;3.50;97.00
28863;DHT22;15994;51.796;13.006;2023-03-01T17:19:46;3.40;97.00
28863;DHT22;15994;51.796;13.006;2023-03-01T17:22:12;3.40;97.40
28863;DHT22;15994;51.796;13.006;2023-03-01T17:24:40;3.30;97.40
28863;DHT22;15994;51.796;13.006;2023-03-01T17:27:07;3.20;97.30
28863;DHT22;15994;51.796;13.006;2023-03-01T17:29:34;3.10;97.20
28863;DHT22;15994;51.796;13.006;2023-03-01T17:32:02;3.00;97.50
28863;DHT22;15994;51.796;13.006;2023-03-01T17:34:30;2.90;97.60
28863;DHT22;15994;51.796;13.006;2023-03-01T17:36:57;2.90;97.60
28863;DHT22;15994;51.796;13.006;2023-03-01T17:39:24;2.80;97.90